createdAt,value
2022-12-03T00:00:27.995Z,8.8
2022-12-03T00:05:27.826Z,8.8
2022-12-03T00:10:27.666Z,7.0
2022-12-03T00:15:27.638Z,9.1
2022-12-03T00:20:27.345Z,9.1
2022-12-03T00:25:27.196Z,9.5
2022-12-03T00:30:27.110Z,9.2
2022-12-03T00:35:26.936Z,8.3
2022-12-03T00:40:26.760Z,8.3
2022-12-03T00:45:26.639Z,8.5
2022-12-03T00:50:28.570Z,13.8
2022-12-03T00:55:26.373Z,6.6
2022-12-03T01:00:28.231Z,8.2
2022-12-03T01:05:26.049Z,13.8
2022-12-03T01:10:25.862Z,10.5
2022-12-03T01:15:27.708Z,23.9
2022-12-03T01:20:25.501Z,15.0
2022-12-03T01:25:25.300Z,9.7
2022-12-03T01:30:25.142Z,12.6
2022-12-03T01:35:25.055Z,12.6
2022-12-03T01:40:24.912Z,11.5
2022-12-03T01:45:24.713Z,12.4
2022-12-03T01:50:24.653Z,12.7
2022-12-03T01:55:24.457Z,11.8
2022-12-03T02:05:24.221Z,9.9
2022-12-03T02:10:24.083Z,11.9
2022-12-03T02:15:23.966Z,12.2
2022-12-03T02:20:23.791Z,11.6
2022-12-03T02:25:23.673Z,14.2
2022-12-03T02:30:25.542Z,9.7
2022-12-03T02:35:23.422Z,13.5
2022-12-03T02:40:23.291Z,10.3
2022-12-03T02:45:23.119Z,10.3
2022-12-03T02:50:23.019Z,13.4
2022-12-03T02:55:22.814Z,13.4
2022-12-03T03:00:22.714Z,10.5
2022-12-03T03:05:22.595Z,12.6
2022-12-03T03:10:22.481Z,15.7
2022-12-03T03:15:22.284Z,14.2
2022-12-03T03:20:22.215Z,16.5
2022-12-03T03:25:22.038Z,19.8
2022-12-03T03:30:21.902Z,11.2
2022-12-03T03:35:21.749Z,16.7
2022-12-03T03:40:24.117Z,15.3
2022-12-03T03:45:25.611Z,21.8
2022-12-03T03:50:21.343Z,11.4
2022-12-03T03:55:21.214Z,10.9
2022-12-03T04:00:21.148Z,9.8
2022-12-03T04:05:20.973Z,13.5
2022-12-03T04:10:20.822Z,13.6
2022-12-03T04:15:20.651Z,13.6
2022-12-03T04:20:20.606Z,10.5
2022-12-03T04:25:20.350Z,11.6
2022-12-03T04:30:20.210Z,10.1
2022-12-03T04:35:20.209Z,10.2
2022-12-03T04:40:20.032Z,12.5
2022-12-03T04:50:19.637Z,16.0
2022-12-03T04:55:19.479Z,9.2
2022-12-03T05:00:19.334Z,14.9
2022-12-03T05:05:19.223Z,12.2
2022-12-03T05:10:19.093Z,12.2
2022-12-03T05:15:18.994Z,11.4
2022-12-03T05:20:18.827Z,10.3
2022-12-03T05:25:18.718Z,10.3
2022-12-03T05:30:18.532Z,10.3
2022-12-03T05:35:18.370Z,9.2
2022-12-03T05:40:18.289Z,7.5
2022-12-03T05:45:18.132Z,17.1
2022-12-03T05:50:18.060Z,10.0
2022-12-03T05:55:17.879Z,6.4
2022-12-03T06:00:17.824Z,13.8
2022-12-03T06:05:17.631Z,16.1
2022-12-03T06:10:17.517Z,16.1
2022-12-03T06:15:19.870Z,14.9
2022-12-03T06:20:17.302Z,14.3
2022-12-03T06:25:17.094Z,12.6
2022-12-03T06:30:16.962Z,16.7
2022-12-03T06:35:16.793Z,16.7
2022-12-03T06:40:16.672Z,11.7
2022-12-03T06:45:16.503Z,11.7
2022-12-03T06:50:16.362Z,11.7
2022-12-03T06:55:16.238Z,13.6
2022-12-03T07:00:16.018Z,15.7
2022-12-03T07:05:15.860Z,11.5
2022-12-03T07:10:15.748Z,19.4
2022-12-03T07:15:15.625Z,13.7
2022-12-03T07:20:15.500Z,16.7
2022-12-03T07:25:22.654Z,18.8
2022-12-03T07:30:15.325Z,18.8
2022-12-03T07:35:16.043Z,15.8
2022-12-03T07:40:15.078Z,15.7
2022-12-03T07:45:14.870Z,18.7
2022-12-03T07:50:16.763Z,13.5
2022-12-03T07:55:14.672Z,13.5
2022-12-03T08:00:14.535Z,18.1
2022-12-03T08:05:14.360Z,16.0
2022-12-03T08:10:14.252Z,12.7
2022-12-03T08:15:14.117Z,14.8
2022-12-03T08:20:14.010Z,14.6
2022-12-03T08:25:13.813Z,14.6
2022-12-03T08:30:13.754Z,19.1
2022-12-03T08:35:13.628Z,19.1
2022-12-03T08:40:13.441Z,13.6
2022-12-03T08:45:13.292Z,15.0
2022-12-03T08:50:15.384Z,15.0
2022-12-03T08:55:13.053Z,13.1
2022-12-03T09:00:12.889Z,17.6
2022-12-03T09:05:12.752Z,16.0
2022-12-03T09:10:12.708Z,14.7
2022-12-03T09:15:12.597Z,16.3
2022-12-03T09:20:12.477Z,15.6
2022-12-03T09:25:12.609Z,11.7
2022-12-03T09:30:12.149Z,11.7
2022-12-03T09:35:14.068Z,15.2
2022-12-03T09:40:14.040Z,10.8
2022-12-03T09:45:11.897Z,10.8
2022-12-03T09:50:13.063Z,9.7
2022-12-03T09:55:11.626Z,12.7
2022-12-03T10:00:11.548Z,18.1
2022-12-03T10:10:11.323Z,11.3
2022-12-03T10:15:11.230Z,12.2
2022-12-03T10:20:11.140Z,10.3
2022-12-03T10:25:11.051Z,9.5
2022-12-03T10:30:11.055Z,10.3
2022-12-03T10:35:10.793Z,10.3
2022-12-03T10:40:10.744Z,9.2
2022-12-03T10:45:10.605Z,7.4
2022-12-03T10:50:10.535Z,7.4
2022-12-03T10:55:12.471Z,10.0
2022-12-03T11:00:10.398Z,7.7
2022-12-03T11:05:10.305Z,7.7
2022-12-03T11:10:10.265Z,9.9
2022-12-03T11:15:10.185Z,9.9
2022-12-03T11:20:10.130Z,6.8
2022-12-03T11:25:10.122Z,8.2
2022-12-03T11:30:10.034Z,15.5
2022-12-03T11:35:09.949Z,5.9
2022-12-03T11:40:09.913Z,6.7
2022-12-03T11:45:09.847Z,6.7
2022-12-03T11:50:09.812Z,7.7
2022-12-03T11:55:09.726Z,6.8
2022-12-03T12:00:09.714Z,6.8
2022-12-03T12:05:09.658Z,10.3
2022-12-03T12:10:09.659Z,10.3
2022-12-03T12:15:09.632Z,9.3
2022-12-03T12:20:09.626Z,9.3
2022-12-03T12:25:09.604Z,6.3
2022-12-03T12:35:09.525Z,11.2
2022-12-03T12:40:09.526Z,11.2
2022-12-03T12:45:09.458Z,6.4
2022-12-03T12:50:09.465Z,7.0
2022-12-03T12:55:09.448Z,7.0
2022-12-03T13:00:09.946Z,10.4
2022-12-03T13:05:10.574Z,8.2
2022-12-03T13:10:09.380Z,10.1
2022-12-03T13:15:09.379Z,9.3
2022-12-03T13:20:09.868Z,12.1
2022-12-03T13:25:09.328Z,12.3
2022-12-03T13:30:09.249Z,7.4
2022-12-03T13:35:09.160Z,7.5
2022-12-03T13:40:09.986Z,6.1
2022-12-03T13:45:09.025Z,11.3
2022-12-03T13:50:09.009Z,7.8
2022-12-03T13:55:08.903Z,10.1
2022-12-03T14:00:08.893Z,34.7
2022-12-03T14:05:08.812Z,12.0
2022-12-03T14:10:08.871Z,6.3
2022-12-03T14:15:09.535Z,11.3
2022-12-03T14:20:08.717Z,12.0
2022-12-03T14:25:08.708Z,12.0
2022-12-03T14:30:08.734Z,6.5
2022-12-03T14:35:10.284Z,15.2
2022-12-03T14:40:08.676Z,6.7
2022-12-03T14:45:08.603Z,10.5
2022-12-03T14:50:08.526Z,9.5
2022-12-03T14:55:08.503Z,9.5
2022-12-03T15:00:12.547Z,9.8
2022-12-03T15:05:08.321Z,9.8
2022-12-03T15:10:08.273Z,11.9
2022-12-03T15:15:08.194Z,11.9
2022-12-03T15:20:08.173Z,10.6
2022-12-03T15:25:08.149Z,10.6
2022-12-03T15:30:08.126Z,11.0
2022-12-03T15:35:07.943Z,8.4
2022-12-03T15:40:09.948Z,9.0
2022-12-03T15:45:13.437Z,9.0
2022-12-03T15:50:10.331Z,15.6
2022-12-03T15:55:07.697Z,11.1
2022-12-03T16:00:07.662Z,10.4
2022-12-03T16:05:07.644Z,10.9
2022-12-03T16:10:07.532Z,16.3
2022-12-03T16:15:07.448Z,11.6
2022-12-03T16:20:07.420Z,13.1
2022-12-03T16:25:07.390Z,12.7
2022-12-03T16:30:07.310Z,12.7
2022-12-03T16:35:07.244Z,12.3
2022-12-03T16:40:08.249Z,12.3
2022-12-03T16:45:07.069Z,17.4
2022-12-03T16:50:06.999Z,13.5
2022-12-03T16:55:06.918Z,8.7
2022-12-03T17:00:06.924Z,19.6
2022-12-03T17:10:09.269Z,19.3
2022-12-03T17:15:06.735Z,15.4
2022-12-03T17:20:06.701Z,15.4
2022-12-03T17:25:06.548Z,17.0
2022-12-03T17:30:06.513Z,16.1
2022-12-03T17:35:06.427Z,17.6
2022-12-03T17:40:08.500Z,19.9
2022-12-03T17:45:06.314Z,19.3
2022-12-03T17:55:12.791Z,18.6
2022-12-03T18:00:08.184Z,26.1
2022-12-03T18:05:08.074Z,18.9
2022-12-03T18:10:06.029Z,18.9
2022-12-03T18:15:05.906Z,26.0
2022-12-03T18:20:07.842Z,26.0
2022-12-03T18:25:05.888Z,20.4
2022-12-03T18:30:05.747Z,17.2
2022-12-03T18:35:05.631Z,14.9
2022-12-03T18:40:13.130Z,14.6
2022-12-03T18:45:05.447Z,14.6
2022-12-03T18:50:05.552Z,16.1
2022-12-03T18:55:05.329Z,16.8
2022-12-03T19:00:13.049Z,22.0
2022-12-03T19:05:05.177Z,19.7
2022-12-03T19:10:05.103Z,21.8
2022-12-03T19:15:05.008Z,16.1
2022-12-03T19:20:04.923Z,23.0
2022-12-03T19:25:04.813Z,23.3
2022-12-03T19:30:06.772Z,18.0
2022-12-03T19:35:07.143Z,18.0
2022-12-03T19:40:04.542Z,20.2
2022-12-03T19:45:04.407Z,17.5
2022-12-03T19:50:04.419Z,24.7
2022-12-03T19:55:04.242Z,19.0
2022-12-03T20:00:04.150Z,21.6
2022-12-03T20:05:04.036Z,21.9
2022-12-03T20:10:04.007Z,22.3
2022-12-03T20:15:04.025Z,22.3
2022-12-03T20:20:03.900Z,22.7
2022-12-03T20:25:03.752Z,20.9
2022-12-03T20:30:03.677Z,21.1
2022-12-03T20:35:03.606Z,18.6
2022-12-03T20:40:03.580Z,24.9
2022-12-03T20:50:03.418Z,23.9
2022-12-03T20:55:03.304Z,24.3
2022-12-03T21:00:03.238Z,21.6
2022-12-03T21:05:03.131Z,21.6
2022-12-03T21:10:03.074Z,20.3
2022-12-03T21:15:05.073Z,21.7
2022-12-03T21:20:02.930Z,21.7
2022-12-03T21:25:07.375Z,27.7
2022-12-03T21:30:02.832Z,27.7
2022-12-03T21:35:02.670Z,19.6
2022-12-03T21:40:02.626Z,24.4
2022-12-03T21:45:02.660Z,21.9
2022-12-03T21:50:02.524Z,21.9
2022-12-03T21:55:02.388Z,23.2
2022-12-03T22:00:02.824Z,25.9
2022-12-03T22:05:03.074Z,27.6
2022-12-03T22:10:02.155Z,27.6
2022-12-03T22:15:02.089Z,23.1
2022-12-03T22:20:01.971Z,19.9
2022-12-03T22:30:01.891Z,21.6
2022-12-03T22:35:01.751Z,22.7
2022-12-03T22:40:01.694Z,27.8
2022-12-03T22:45:01.582Z,23.1
2022-12-03T22:50:01.527Z,25.9
2022-12-03T22:55:01.401Z,21.1
2022-12-03T23:00:01.367Z,20.6
2022-12-03T23:05:03.199Z,20.6
2022-12-03T23:10:01.152Z,24.0
2022-12-03T23:15:01.348Z,23.2
2022-12-03T23:20:00.919Z,22.1
2022-12-03T23:25:00.770Z,22.1
2022-12-03T23:30:00.727Z,21.9
2022-12-03T23:35:00.562Z,20.7
2022-12-03T23:40:00.490Z,20.7
2022-12-03T23:45:02.402Z,19.3
2022-12-03T23:50:00.475Z,27.2
2022-12-03T23:55:00.657Z,19.9
